Time;durP1;ratioP1;P1;durP2;ratioP2;P2;SDS_P1;SDS_P2;PMS_P1;PMS_P2;Temp;Humidity;BMP_temperature;BMP_pressure;BME280_temperature;BME280_humidity;BME280_pressure;Samples;Min_cycle;Max_cycle;Signal;HPM_P1;HPM_P2
2022/01/02 00:01:20;;;;;;;5.30;2.92;;;16.10;91.70;;;;;;4994351;28;20490;-69
2022/01/02 00:03:52;;;;;;;7.63;4.03;;;16.10;91.80;;;;;;4994393;28;20038;-69
2022/01/02 00:06:23;;;;;;;6.97;3.55;;;16.00;91.80;;;;;;4994069;28;20109;-68
2022/01/02 00:09:00;;;;;;;8.20;3.92;;;16.00;91.90;;;;;;4994298;28;20025;-68
2022/01/02 00:11:25;;;;;;;8.18;3.65;;;16.00;91.90;;;;;;4994113;28;20018;-68
2022/01/02 00:13:59;;;;;;;7.55;3.30;;;16.00;92.00;;;;;;4992463;28;20117;-70
2022/01/02 00:16:26;;;;;;;8.77;4.05;;;15.90;92.00;;;;;;4994011;28;20432;-68
2022/01/02 00:19:05;;;;;;;8.35;4.25;;;15.90;92.10;;;;;;4993985;28;20416;-68
2022/01/02 00:21:38;;;;;;;9.40;3.78;;;15.90;92.20;;;;;;4992445;28;20057;-69
2022/01/02 00:24:10;;;;;;;9.80;4.22;;;15.90;92.30;;;;;;4994231;28;20033;-68
2022/01/02 00:26:41;;;;;;;7.45;4.05;;;15.90;92.30;;;;;;4993729;28;20535;-70
2022/01/02 00:29:07;;;;;;;9.98;3.55;;;15.90;92.40;;;;;;4993942;28;20547;-69
2022/01/02 00:31:34;;;;;;;7.38;3.88;;;15.90;92.50;;;;;;4993766;28;20058;-69
2022/01/02 00:34:01;;;;;;;8.38;3.55;;;15.90;92.50;;;;;;4993748;28;20069;-68
2022/01/02 00:36:27;;;;;;;8.93;4.30;;;15.90;92.50;;;;;;4992368;28;20018;-68
2022/01/02 00:38:53;;;;;;;8.70;3.70;;;15.90;92.60;;;;;;4993677;28;20091;-68
2022/01/02 00:41:33;;;;;;;8.57;4.18;;;15.90;92.70;;;;;;4993586;28;20453;-69
2022/01/02 00:44:23;;;;;;;7.57;3.75;;;15.90;92.70;;;;;;4993776;28;20026;-69
2022/01/02 00:47:01;;;;;;;9.82;4.47;;;15.90;92.80;;;;;;4972697;28;20038;-69
2022/01/02 00:49:27;;;;;;;10.38;4.13;;;15.90;92.80;;;;;;4993731;28;20028;-68
2022/01/02 00:52:02;;;;;;;9.30;4.40;;;15.80;92.80;;;;;;4993817;28;20027;-67
2022/01/02 00:54:29;;;;;;;7.72;3.65;;;15.80;92.80;;;;;;4992452;28;20026;-68
2022/01/02 00:57:00;;;;;;;8.32;3.67;;;15.80;92.90;;;;;;4993140;28;20496;-70
2022/01/02 00:59:34;;;;;;;8.95;4.00;;;15.80;92.90;;;;;;4993636;28;20038;-70
2022/01/02 01:02:03;;;;;;;7.25;3.80;;;15.80;92.90;;;;;;4993451;28;20026;-69
2022/01/02 01:04:34;;;;;;;9.60;3.72;;;15.80;93.00;;;;;;4993657;28;20030;-70
2022/01/02 01:07:04;;;;;;;13.95;4.43;;;15.80;93.00;;;;;;4996830;28;20049;-69
2022/01/02 01:09:31;;;;;;;9.70;4.13;;;15.80;93.00;;;;;;4998056;28;20041;-70
2022/01/02 01:12:02;;;;;;;9.43;4.43;;;15.70;93.10;;;;;;4997056;28;20015;-68
2022/01/02 01:14:29;;;;;;;7.18;4.28;;;15.70;93.10;;;;;;4997397;28;20357;-67
2022/01/02 01:16:55;;;;;;;10.25;4.07;;;15.80;93.10;;;;;;4997271;28;20476;-69
2022/01/02 01:19:22;;;;;;;11.60;4.40;;;15.70;93.10;;;;;;4997234;28;20026;-69
2022/01/02 01:21:51;;;;;;;11.07;4.82;;;15.70;93.10;;;;;;4997302;28;20085;-69
2022/01/02 01:24:17;;;;;;;15.23;4.22;;;15.70;93.30;;;;;;4997081;28;20034;-68
2022/01/02 01:26:53;;;;;;;12.45;4.60;;;15.70;93.40;;;;;;4997259;28;20096;-70
2022/01/02 01:29:19;;;;;;;12.18;4.80;;;15.70;93.30;;;;;;4995718;28;20026;-69
2022/01/02 01:31:46;;;;;;;12.10;4.95;;;15.70;93.30;;;;;;4998413;28;20030;-70
2022/01/02 01:34:12;;;;;;;10.88;4.65;;;15.70;93.30;;;;;;4998189;28;20046;-70
2022/01/02 01:36:38;;;;;;;12.55;4.20;;;15.70;93.40;;;;;;4998058;28;20019;-68
2022/01/02 01:39:04;;;;;;;9.85;4.32;;;15.70;93.40;;;;;;4998136;28;20038;-69
2022/01/02 01:41:37;;;;;;;10.18;4.38;;;15.70;93.30;;;;;;4997562;28;20034;-69
2022/01/02 01:44:21;;;;;;;9.38;3.95;;;15.70;93.40;;;;;;4996900;28;20101;-68
2022/01/02 01:46:54;;;;;;;9.88;4.13;;;15.70;93.30;;;;;;4997235;28;20030;-68
2022/01/02 01:49:30;;;;;;;10.18;4.35;;;15.70;93.60;;;;;;4997317;28;20554;-67
2022/01/02 01:51:56;;;;;;;9.15;4.03;;;15.60;93.40;;;;;;4995786;28;20383;-66
2022/01/02 01:54:22;;;;;;;8.60;4.35;;;15.60;93.30;;;;;;4996371;28;20031;-69
2022/01/02 01:56:50;;;;;;;10.10;4.30;;;15.60;93.40;;;;;;4996653;28;20106;-68
2022/01/02 01:59:16;;;;;;;11.43;3.92;;;15.70;93.40;;;;;;4996382;28;20022;-66
2022/01/02 02:01:42;;;;;;;7.53;3.53;;;15.70;93.60;;;;;;4996586;28;20031;-68
2022/01/02 02:04:08;;;;;;;7.93;3.60;;;15.60;93.30;;;;;;4996698;28;20070;-68
2022/01/02 02:06:35;;;;;;;9.80;4.15;;;15.70;93.30;;;;;;4996476;28;20534;-68
2022/01/02 02:09:02;;;;;;;12.07;4.28;;;15.60;93.30;;;;;;4995835;28;20030;-69
2022/01/02 02:11:29;;;;;;;12.23;4.10;;;15.70;93.30;;;;;;4996458;28;20015;-68
2022/01/02 02:13:55;;;;;;;10.07;4.03;;;15.60;93.30;;;;;;4996101;28;20491;-66
2022/01/02 02:16:22;;;;;;;8.38;3.70;;;15.70;93.20;;;;;;4996445;28;20384;-69
2022/01/02 02:18:47;;;;;;;10.75;3.92;;;15.70;93.30;;;;;;4995115;28;20041;-68
2022/01/02 02:21:13;;;;;;;9.07;3.90;;;15.70;93.20;;;;;;4996506;28;20023;-66
2022/01/02 02:23:39;;;;;;;10.48;4.32;;;15.70;93.10;;;;;;4996057;28;20491;-69
2022/01/02 02:26:05;;;;;;;9.25;3.72;;;15.70;93.10;;;;;;4995843;28;20372;-69
2022/01/02 02:28:30;;;;;;;9.15;3.40;;;15.70;93.00;;;;;;4996167;28;20109;-70
2022/01/02 02:30:56;;;;;;;12.63;3.65;;;15.70;93.20;;;;;;4995852;28;20021;-69
2022/01/02 02:33:24;;;;;;;9.70;3.90;;;15.70;93.10;;;;;;4995902;28;20038;-65
2022/01/02 02:35:50;;;;;;;11.50;4.50;;;15.70;93.00;;;;;;4995974;28;20099;-67
2022/01/02 02:38:18;;;;;;;9.45;4.20;;;15.70;93.00;;;;;;4995546;28;20123;-69
2022/01/02 02:40:45;;;;;;;12.98;4.22;;;15.70;92.90;;;;;;4995778;28;20094;-69
2022/01/02 02:51:21;;;;;;;7.38;3.22;;;15.70;92.80;;;;;;4995920;28;20395;-65
2022/01/02 02:53:48;;;;;;;5.40;3.25;;;15.60;92.80;;;;;;4995430;28;20023;-65
2022/01/02 02:56:27;;;;;;;6.00;2.97;;;15.60;92.70;;;;;;4995084;28;20088;-67
2022/01/02 02:58:58;;;;;;;6.75;3.53;;;15.60;92.70;;;;;;4995409;28;20038;-68
2022/01/02 03:01:27;;;;;;;6.88;3.78;;;15.60;92.70;;;;;;4995492;28;20022;-67
2022/01/02 03:03:53;;;;;;;7.65;3.47;;;15.70;92.60;;;;;;4995350;28;20054;-68
2022/01/02 03:06:19;;;;;;;8.43;3.45;;;15.60;92.60;;;;;;4995021;28;20029;-67
2022/01/02 03:08:48;;;;;;;8.15;3.38;;;15.70;92.60;;;;;;4995144;28;20543;-68
2022/01/02 03:11:18;;;;;;;7.78;3.38;;;15.70;92.60;;;;;;4995291;28;20022;-67
2022/01/02 03:13:45;;;;;;;7.28;3.28;;;15.60;92.50;;;;;;4995347;28;20492;-68
2022/01/02 03:16:11;;;;;;;8.63;3.45;;;15.60;92.50;;;;;;4995159;28;20065;-67
2022/01/02 03:18:37;;;;;;;5.70;3.67;;;15.60;92.50;;;;;;4994910;28;20116;-68
2022/01/02 03:21:03;;;;;;;9.45;3.47;;;15.60;92.50;;;;;;4994680;28;20027;-68
2022/01/02 03:23:29;;;;;;;6.55;2.78;;;15.60;92.50;;;;;;4989783;28;20042;-68
2022/01/02 03:25:55;;;;;;;6.60;2.88;;;15.60;92.50;;;;;;4985398;28;20026;-68
2022/01/02 03:28:20;;;;;;;7.05;3.03;;;15.60;92.40;;;;;;4974355;28;20503;-68
2022/01/02 03:30:46;;;;;;;6.57;3.10;;;15.60;92.50;;;;;;4976166;28;20058;-68
2022/01/02 03:33:12;;;;;;;7.50;3.10;;;15.60;92.50;;;;;;4979237;28;20444;-67
2022/01/02 03:35:38;;;;;;;9.27;3.47;;;15.50;92.50;;;;;;4975888;28;20035;-68
2022/01/02 03:38:04;;;;;;;8.15;2.80;;;15.50;92.50;;;;;;4975013;28;20069;-67
2022/01/02 03:40:30;;;;;;;9.35;3.67;;;15.50;92.60;;;;;;4975140;28;20018;-65
2022/01/02 03:42:57;;;;;;;9.32;3.60;;;15.60;92.70;;;;;;4975041;28;20027;-68
2022/01/02 03:45:22;;;;;;;6.85;3.33;;;15.50;92.70;;;;;;4975258;28;20106;-66
2022/01/02 03:47:48;;;;;;;7.13;2.90;;;15.50;92.80;;;;;;4975389;28;20110;-67
2022/01/02 03:50:15;;;;;;;6.53;3.50;;;15.50;92.80;;;;;;4974580;28;20023;-67
2022/01/02 03:52:41;;;;;;;5.93;3.30;;;15.50;93.00;;;;;;4975213;28;20065;-67
2022/01/02 03:55:08;;;;;;;7.18;3.92;;;15.50;93.00;;;;;;4975097;28;20059;-67
2022/01/02 03:57:34;;;;;;;8.25;3.20;;;15.50;92.90;;;;;;4989782;28;20075;-66
2022/01/02 03:59:59;;;;;;;7.90;3.47;;;15.50;92.90;;;;;;4974780;28;20030;-67
2022/01/02 04:02:25;;;;;;;7.15;3.40;;;15.50;92.80;;;;;;4974800;28;20074;-67
2022/01/02 04:04:50;;;;;;;8.63;3.50;;;15.40;92.80;;;;;;4974618;28;20066;-66
2022/01/02 04:07:16;;;;;;;11.35;3.78;;;15.40;92.80;;;;;;4974519;28;20081;-68
2022/01/02 04:09:42;;;;;;;8.40;3.47;;;15.50;92.80;;;;;;4973563;28;20118;-68
2022/01/02 04:12:08;;;;;;;6.95;3.17;;;15.50;92.90;;;;;;4974609;28;20033;-68
2022/01/02 04:14:34;;;;;;;8.52;3.40;;;15.50;92.80;;;;;;4974947;28;20582;-66
2022/01/02 04:17:00;;;;;;;9.45;3.58;;;15.40;92.80;;;;;;4974475;28;20057;-67
2022/01/02 04:19:25;;;;;;;8.35;3.70;;;15.50;92.80;;;;;;4989230;28;20449;-67
2022/01/02 04:21:51;;;;;;;5.50;3.25;;;15.40;92.80;;;;;;4974683;28;20035;-67
2022/01/02 04:24:16;;;;;;;7.05;3.70;;;15.40;92.90;;;;;;4974736;28;20034;-67
2022/01/02 04:26:42;;;;;;;8.27;3.95;;;15.40;92.90;;;;;;4974408;28;20484;-68
2022/01/02 04:29:08;;;;;;;9.77;3.50;;;15.40;92.90;;;;;;4974494;28;20453;-67
2022/01/02 04:31:33;;;;;;;6.18;3.42;;;15.40;92.90;;;;;;4974509;28;20030;-68
2022/01/02 04:33:59;;;;;;;8.50;3.30;;;15.40;93.00;;;;;;4973968;28;20035;-67
2022/01/02 04:36:25;;;;;;;6.88;3.40;;;15.40;93.00;;;;;;4981601;28;20038;-67
2022/01/02 04:38:50;;;;;;;9.10;3.22;;;15.40;93.10;;;;;;4983606;28;20034;-68
2022/01/02 04:41:16;;;;;;;7.68;3.17;;;15.30;93.10;;;;;;4975508;28;20487;-68
2022/01/02 04:43:41;;;;;;;6.80;3.35;;;15.40;93.10;;;;;;4973306;28;20054;-67
2022/01/02 04:46:07;;;;;;;7.35;3.47;;;15.40;93.20;;;;;;4974037;28;20484;-67
2022/01/02 04:48:33;;;;;;;6.78;3.40;;;15.40;93.20;;;;;;4973935;28;20030;-67
2022/01/02 04:50:58;;;;;;;8.27;4.25;;;15.40;93.20;;;;;;4973187;28;20427;-68
2022/01/02 04:53:24;;;;;;;8.05;3.60;;;15.40;93.30;;;;;;4974296;28;20596;-68
2022/01/02 04:55:50;;;;;;;7.53;3.45;;;15.30;93.20;;;;;;4974475;28;20101;-68
2022/01/02 04:58:17;;;;;;;6.65;3.30;;;15.30;93.30;;;;;;4974124;28;20126;-67
2022/01/02 05:00:43;;;;;;;6.97;3.22;;;15.30;93.30;;;;;;4974397;28;20135;-67
2022/01/02 05:03:08;;;;;;;5.47;3.00;;;15.30;93.20;;;;;;4973655;28;20097;-67
2022/01/02 05:05:34;;;;;;;7.50;3.20;;;15.30;93.20;;;;;;4974090;28;20018;-67
2022/01/02 05:08:00;;;;;;;6.28;2.85;;;15.40;93.30;;;;;;4974110;28;20473;-68
2022/01/02 05:10:25;;;;;;;7.65;3.33;;;15.40;93.30;;;;;;4974085;28;20097;-67
2022/01/02 05:12:51;;;;;;;7.32;3.65;;;15.30;93.30;;;;;;4974365;28;20400;-68
2022/01/02 05:15:17;;;;;;;9.27;3.70;;;15.30;93.30;;;;;;4974051;28;20019;-67
2022/01/02 05:17:45;;;;;;;8.55;3.15;;;15.40;93.30;;;;;;4973770;28;20062;-68
2022/01/02 05:20:11;;;;;;;7.90;3.00;;;15.30;93.20;;;;;;4974203;28;20034;-68
2022/01/02 05:22:37;;;;;;;5.93;3.08;;;15.30;93.20;;;;;;4974017;28;20030;-67
2022/01/02 05:25:04;;;;;;;5.15;3.13;;;15.30;93.20;;;;;;4974074;28;20027;-68
2022/01/02 05:27:29;;;;;;;3.63;2.72;;;15.30;93.20;;;;;;4974028;28;20051;-68
2022/01/02 05:29:55;;;;;;;6.97;3.10;;;15.30;93.10;;;;;;4977301;28;20064;-67
2022/01/02 05:32:20;;;;;;;7.78;3.03;;;15.30;93.00;;;;;;4976565;28;20118;-67
2022/01/02 05:34:46;;;;;;;8.43;2.97;;;15.30;93.10;;;;;;4973986;28;20023;-67
2022/01/02 05:37:12;;;;;;;9.13;3.08;;;15.30;93.10;;;;;;4974045;28;20458;-68
2022/01/02 05:39:37;;;;;;;8.00;2.80;;;15.30;93.10;;;;;;4973942;28;20037;-67
2022/01/02 05:42:03;;;;;;;7.82;2.78;;;15.20;93.10;;;;;;4973954;28;20468;-66
2022/01/02 05:44:30;;;;;;;6.47;2.78;;;15.20;93.20;;;;;;4973692;28;20027;-68
2022/01/02 05:46:56;;;;;;;5.93;2.80;;;15.30;93.20;;;;;;4973579;28;20038;-66
2022/01/02 05:49:22;;;;;;;5.60;2.85;;;15.20;93.10;;;;;;4973633;28;20461;-66
2022/01/02 05:51:48;;;;;;;8.25;2.90;;;15.20;93.20;;;;;;4973824;28;20034;-67
2022/01/02 05:54:13;;;;;;;6.72;3.58;;;15.20;93.20;;;;;;4976882;28;20027;-67
2022/01/02 05:56:39;;;;;;;6.63;3.20;;;15.20;93.10;;;;;;4977363;28;20056;-68
2022/01/02 05:59:05;;;;;;;7.78;2.97;;;15.20;93.10;;;;;;4975791;28;20413;-67
2022/01/02 06:01:30;;;;;;;7.10;3.25;;;15.20;93.10;;;;;;4981516;28;20496;-68
2022/01/02 06:03:56;;;;;;;9.10;3.38;;;15.20;93.10;;;;;;4996175;28;20049;-67
2022/01/02 06:06:22;;;;;;;5.97;2.58;;;15.20;93.10;;;;;;4994649;28;20027;-68
2022/01/02 06:08:47;;;;;;;7.38;2.85;;;15.20;93.10;;;;;;4995205;28;20380;-67
2022/01/02 06:11:13;;;;;;;5.32;2.70;;;15.20;93.00;;;;;;4996209;28;20037;-68
2022/01/02 06:13:40;;;;;;;8.13;3.17;;;15.20;93.00;;;;;;4996206;28;20027;-68
2022/01/02 06:16:07;;;;;;;5.68;2.90;;;15.20;92.90;;;;;;4996041;28;20030;-67
2022/01/02 06:18:32;;;;;;;7.03;2.80;;;15.20;92.90;;;;;;4996499;28;20088;-67
2022/01/02 06:20:58;;;;;;;6.75;2.92;;;15.20;92.90;;;;;;4996191;28;20022;-68
2022/01/02 06:23:23;;;;;;;4.65;2.55;;;15.20;92.80;;;;;;4996289;28;20383;-68
2022/01/02 06:25:49;;;;;;;6.68;2.63;;;15.20;92.80;;;;;;4995995;28;20081;-67
2022/01/02 06:28:15;;;;;;;3.97;2.33;;;15.20;92.70;;;;;;4996183;28;20479;-67
2022/01/02 06:30:40;;;;;;;4.50;2.70;;;15.30;92.70;;;;;;4995660;28;20077;-67
2022/01/02 06:33:06;;;;;;;4.57;2.63;;;15.20;92.50;;;;;;4996055;28;20133;-67
2022/01/02 06:35:34;;;;;;;4.82;2.88;;;15.20;92.50;;;;;;4995834;28;20037;-67
2022/01/02 06:38:09;;;;;;;4.95;2.53;;;15.20;92.30;;;;;;4995926;28;20076;-66
2022/01/02 06:40:35;;;;;;;6.60;2.72;;;15.20;92.40;;;;;;4995756;28;20026;-64
2022/01/02 06:43:00;;;;;;;6.38;2.63;;;15.20;92.20;;;;;;4995847;28;20033;-65
2022/01/02 06:45:26;;;;;;;7.10;3.17;;;15.20;92.20;;;;;;4995248;28;20026;-65
2022/01/02 06:47:51;;;;;;;4.78;2.80;;;15.20;92.20;;;;;;4995852;28;20113;-68
2022/01/02 06:50:17;;;;;;;5.88;2.72;;;15.20;92.20;;;;;;4995685;28;20029;-65
2022/01/02 06:52:42;;;;;;;4.85;2.33;;;15.20;92.20;;;;;;4996032;28;20108;-68
2022/01/02 06:55:08;;;;;;;5.13;2.40;;;15.20;92.20;;;;;;4995344;28;20026;-67
2022/01/02 06:57:34;;;;;;;6.53;2.65;;;15.20;92.10;;;;;;4995316;28;20488;-68
2022/01/02 07:00:00;;;;;;;3.75;2.72;;;15.20;92.10;;;;;;4994897;28;20471;-67
2022/01/02 07:02:25;;;;;;;5.05;2.67;;;15.20;92.00;;;;;;4995454;28;20042;-65
2022/01/02 07:04:51;;;;;;;9.20;2.80;;;15.20;92.00;;;;;;4994909;28;20019;-68
2022/01/02 07:07:16;;;;;;;3.90;2.75;;;15.20;91.90;;;;;;4995424;28;20375;-66
2022/01/02 07:09:42;;;;;;;7.47;2.58;;;15.20;92.00;;;;;;4995116;28;20539;-68
2022/01/02 07:12:08;;;;;;;6.22;2.55;;;15.20;91.90;;;;;;4995440;28;20029;-68
2022/01/02 07:14:33;;;;;;;5.35;2.33;;;15.20;91.90;;;;;;4993781;28;20058;-68
2022/01/02 07:17:00;;;;;;;4.50;2.58;;;15.20;91.90;;;;;;4993681;28;20018;-63
2022/01/02 07:19:26;;;;;;;4.22;2.05;;;15.20;91.90;;;;;;4995040;28;20022;-67
2022/01/02 07:21:52;;;;;;;3.65;2.45;;;15.20;91.80;;;;;;4995073;28;20145;-68
2022/01/02 07:24:19;;;;;;;4.40;2.28;;;15.20;91.80;;;;;;4994879;28;20105;-66
2022/01/02 07:26:45;;;;;;;4.32;2.30;;;15.30;91.90;;;;;;4994387;28;20026;-67
2022/01/02 07:29:11;;;;;;;7.07;2.65;;;15.30;91.90;;;;;;4995158;28;20019;-64
2022/01/02 07:31:37;;;;;;;4.07;2.22;;;15.30;91.80;;;;;;4993619;28;20030;-66
2022/01/02 07:34:03;;;;;;;3.33;2.55;;;15.30;91.80;;;;;;4994386;28;20129;-68
2022/01/02 07:36:29;;;;;;;5.18;2.63;;;15.30;91.90;;;;;;4994697;28;20022;-65
2022/01/02 07:38:55;;;;;;;4.55;2.60;;;15.30;91.80;;;;;;4994725;28;20038;-66
2022/01/02 07:41:21;;;;;;;3.67;2.35;;;15.30;91.80;;;;;;4994538;28;20034;-67
2022/01/02 07:43:46;;;;;;;3.38;2.15;;;15.30;91.80;;;;;;4992230;28;20105;-66
2022/01/02 07:46:12;;;;;;;6.97;2.58;;;15.30;91.80;;;;;;4993798;28;20033;-68
2022/01/02 07:48:38;;;;;;;4.18;2.08;;;15.30;91.80;;;;;;4993101;28;20392;-66
2022/01/02 07:51:04;;;;;;;4.93;2.60;;;15.30;91.80;;;;;;4994400;28;20034;-67
2022/01/02 07:53:30;;;;;;;3.92;2.08;;;15.30;91.80;;;;;;4994527;28;20098;-68
2022/01/02 07:55:56;;;;;;;4.50;2.15;;;15.30;91.80;;;;;;4994194;28;20105;-67
2022/01/02 07:58:22;;;;;;;6.80;2.47;;;15.40;91.80;;;;;;4993819;28;20508;-66
2022/01/02 08:00:48;;;;;;;6.47;2.35;;;15.40;91.80;;;;;;4994582;28;20038;-77
2022/01/02 08:03:13;;;;;;;5.13;2.45;;;15.40;91.80;;;;;;4992975;28;20110;-67
2022/01/02 08:05:39;;;;;;;6.22;2.55;;;15.50;91.60;;;;;;4994132;28;20109;-66
2022/01/02 08:08:05;;;;;;;7.82;2.67;;;15.50;91.50;;;;;;4994120;28;20023;-66
2022/01/02 08:10:30;;;;;;;5.88;2.38;;;15.60;91.40;;;;;;4994129;28;20361;-67
2022/01/02 08:12:56;;;;;;;6.10;2.72;;;15.60;91.40;;;;;;4993903;28;20031;-67
2022/01/02 08:15:22;;;;;;;5.88;2.30;;;15.60;91.20;;;;;;4993417;28;20475;-67
2022/01/02 08:17:47;;;;;;;8.02;2.50;;;15.70;91.20;;;;;;4994449;28;20117;-67
2022/01/02 08:20:13;;;;;;;6.63;2.90;;;15.70;91.20;;;;;;4994161;28;20045;-67
2022/01/02 08:22:39;;;;;;;6.78;2.83;;;15.70;91.10;;;;;;4994026;28;20106;-67
2022/01/02 08:25:06;;;;;;;6.20;2.45;;;15.70;91.00;;;;;;4994033;28;20097;-66
2022/01/02 08:27:31;;;;;;;5.13;2.78;;;15.80;91.00;;;;;;4993330;28;20022;-66
2022/01/02 08:29:57;;;;;;;4.70;2.40;;;15.80;90.90;;;;;;4994149;28;20045;-66
2022/01/02 08:32:23;;;;;;;4.40;2.50;;;15.80;90.80;;;;;;4993758;28;20038;-66
2022/01/02 08:34:49;;;;;;;9.38;3.00;;;15.80;90.80;;;;;;4993994;28;20065;-67
2022/01/02 08:37:15;;;;;;;7.40;2.58;;;15.90;90.80;;;;;;4992039;28;20026;-67
2022/01/02 08:39:44;;;;;;;4.88;2.92;;;15.90;90.90;;;;;;4988286;28;20851;-68
2022/01/02 08:42:12;;;;;;;6.47;2.70;;;15.90;91.00;;;;;;4991465;28;20023;-68
2022/01/02 08:44:39;;;;;;;9.57;3.53;;;16.00;91.00;;;;;;4993638;28;20037;-68
2022/01/02 08:47:06;;;;;;;5.20;2.65;;;16.00;90.90;;;;;;4992651;28;20026;-68
2022/01/02 08:49:32;;;;;;;8.18;2.83;;;16.00;91.20;;;;;;4993442;28;20030;-67
2022/01/02 08:51:58;;;;;;;9.18;2.50;;;16.00;90.90;;;;;;4990751;28;20112;-65
2022/01/02 08:54:24;;;;;;;5.65;2.40;;;16.00;90.90;;;;;;4992349;28;20461;-66
2022/01/02 08:56:49;;;;;;;7.53;3.08;;;16.10;90.90;;;;;;4993205;28;20057;-67
2022/01/02 08:59:15;;;;;;;7.20;3.15;;;16.10;90.90;;;;;;4986027;28;20480;-66
2022/01/02 09:01:41;;;;;;;4.40;2.55;;;16.10;90.80;;;;;;4985843;28;20011;-67
2022/01/02 09:04:07;;;;;;;9.38;2.90;;;16.10;90.80;;;;;;4987263;28;20501;-66
2022/01/02 09:06:32;;;;;;;6.05;2.53;;;16.20;90.80;;;;;;4990852;28;20046;-67
2022/01/02 09:08:58;;;;;;;6.30;3.00;;;16.20;90.70;;;;;;4991668;28;20487;-68
2022/01/02 09:11:24;;;;;;;8.15;2.88;;;16.20;90.70;;;;;;4992646;28;20034;-65
2022/01/02 09:13:50;;;;;;;9.93;2.92;;;16.20;90.60;;;;;;4990786;28;20037;-68
2022/01/02 09:16:15;;;;;;;7.57;2.80;;;16.20;90.70;;;;;;4991278;28;20057;-68
2022/01/02 09:18:41;;;;;;;5.20;2.95;;;16.20;90.70;;;;;;4990165;28;20038;-66
2022/01/02 09:21:06;;;;;;;6.05;3.20;;;16.20;90.60;;;;;;4989664;28;20452;-68
2022/01/02 09:23:32;;;;;;;6.15;2.92;;;16.20;90.60;;;;;;4994357;28;20049;-68
2022/01/02 09:25:58;;;;;;;6.85;3.45;;;16.30;90.60;;;;;;4994644;28;20026;-68
2022/01/02 09:28:24;;;;;;;6.90;2.95;;;16.30;90.50;;;;;;4996321;28;20030;-68
2022/01/02 09:30:49;;;;;;;6.53;2.78;;;16.30;90.40;;;;;;4994470;28;20113;-68
2022/01/02 09:33:15;;;;;;;3.45;2.83;;;16.30;90.40;;;;;;4995269;28;20045;-66
2022/01/02 09:35:41;;;;;;;6.88;2.88;;;16.30;90.30;;;;;;4990511;28;20461;-67
2022/01/02 09:38:08;;;;;;;7.65;2.95;;;16.30;90.30;;;;;;4995008;28;20089;-68
2022/01/02 09:40:34;;;;;;;10.07;3.22;;;16.30;90.20;;;;;;4995580;28;20038;-67
2022/01/02 09:43:02;;;;;;;7.10;3.17;;;16.30;90.20;;;;;;4995725;28;20583;-67
2022/01/02 09:45:28;;;;;;;6.60;2.88;;;16.40;90.20;;;;;;4994391;28;20035;-67
2022/01/02 09:47:54;;;;;;;7.88;2.97;;;16.40;90.10;;;;;;4993808;28;20453;-68
2022/01/02 09:50:20;;;;;;;5.72;2.65;;;16.40;90.10;;;;;;4993989;28;20022;-67
2022/01/02 09:52:46;;;;;;;5.40;3.15;;;16.40;90.10;;;;;;4995038;28;20022;-68
2022/01/02 09:55:12;;;;;;;5.07;2.60;;;16.40;90.00;;;;;;4994247;28;20152;-67
2022/01/02 09:57:45;;;;;;;5.40;2.95;;;16.40;90.00;;;;;;4994504;28;20050;-67
2022/01/02 10:00:12;;;;;;;5.82;3.13;;;16.40;90.10;;;;;;4995076;28;20022;-68
2022/01/02 10:03:04;;;;;;;5.55;3.15;;;16.40;90.00;;;;;;4993904;28;20034;-67
2022/01/02 10:05:59;;;;;;;7.07;3.20;;;16.40;90.00;;;;;;4994635;28;20555;-68
2022/01/02 10:08:34;;;;;;;7.32;3.40;;;16.40;90.10;;;;;;4989181;28;20022;-68
2022/01/02 10:11:05;;;;;;;5.30;3.15;;;16.40;90.10;;;;;;4994583;28;20023;-67
2022/01/02 10:13:37;;;;;;;5.25;3.10;;;16.40;90.10;;;;;;4993658;28;20435;-67
2022/01/02 10:16:03;;;;;;;;;;;16.40;90.10;;;;;;4995358;28;20026;-68
2022/01/02 10:18:28;;;;;;;6.15;2.67;;;16.40;90.20;;;;;;4994053;28;20404;-68
2022/01/02 10:20:59;;;;;;;6.50;3.38;;;16.40;90.30;;;;;;4992166;28;20018;-68
2022/01/02 10:23:25;;;;;;;6.30;3.00;;;16.40;90.20;;;;;;4993956;28;20041;-68
2022/01/02 10:25:57;;;;;;;6.75;2.92;;;16.40;90.20;;;;;;4991497;28;20019;-66
2022/01/02 10:28:42;;;;;;;4.82;3.15;;;16.40;90.20;;;;;;4993810;28;20045;-68
2022/01/02 10:31:14;;;;;;;8.30;2.50;;;16.40;90.50;;;;;;4994400;28;20030;-68
2022/01/02 10:34:07;;;;;;;5.38;2.85;;;16.40;90.30;;;;;;5002716;28;20061;-68
2022/01/02 10:36:33;;;;;;;;;;;16.50;90.20;;;;;;4994668;28;20460;-68
2022/01/02 10:39:14;;;;;;;6.60;3.08;;;16.40;90.30;;;;;;4992511;28;20008;-67
2022/01/02 10:41:48;;;;;;;5.22;2.88;;;16.50;90.30;;;;;;4993721;28;20026;-67
2022/01/02 10:44:21;;;;;;;6.50;2.97;;;16.50;90.30;;;;;;4992073;28;20026;-68
2022/01/02 10:47:09;;;;;;;8.27;2.88;;;16.50;90.30;;;;;;4992726;28;20042;-68
2022/01/02 10:49:58;;;;;;;8.73;2.90;;;16.50;90.30;;;;;;4994364;28;20034;-68
2022/01/02 10:52:41;;;;;;;5.43;2.90;;;16.50;90.30;;;;;;4994041;28;20030;-69
2022/01/02 10:55:17;;;;;;;5.05;2.78;;;16.60;90.40;;;;;;4994338;28;20024;-68
2022/01/02 10:57:49;;;;;;;9.52;3.20;;;16.60;90.30;;;;;;4981054;28;20038;-67
2022/01/02 11:00:19;;;;;;;8.00;2.95;;;16.50;90.30;;;;;;4993004;28;20030;-67
2022/01/02 11:02:46;;;;;;;9.38;3.20;;;16.60;90.40;;;;;;4992444;28;20041;-66
2022/01/02 11:05:14;;;;;;;6.68;2.67;;;16.60;90.40;;;;;;4993486;28;20117;-66
2022/01/02 11:07:43;;;;;;;7.38;3.25;;;16.60;90.50;;;;;;4993788;28;20094;-67
2022/01/02 11:10:17;;;;;;;10.05;3.38;;;16.60;90.50;;;;;;4994591;28;20033;-67
2022/01/02 11:12:44;;;;;;;9.90;2.63;;;16.70;90.60;;;;;;4993875;28;20034;-67
2022/01/02 11:15:13;;;;;;;13.68;3.22;;;16.70;90.60;;;;;;4993543;28;20105;-67
2022/01/02 11:17:39;;;;;;;8.80;3.42;;;16.60;90.90;;;;;;4993498;28;20487;-67
2022/01/02 11:20:07;;;;;;;8.57;2.72;;;16.60;90.60;;;;;;4992908;28;20105;-67
2022/01/02 11:23:00;;;;;;;6.05;2.47;;;16.60;90.60;;;;;;4993603;28;20034;-67
2022/01/02 11:25:42;;;;;;;7.30;2.92;;;16.60;90.70;;;;;;4994755;28;20084;-67
2022/01/02 11:28:35;;;;;;;7.05;3.30;;;16.60;90.70;;;;;;4996713;28;20403;-66
2022/01/02 11:31:03;;;;;;;7.13;3.10;;;16.70;90.80;;;;;;4991828;28;20026;-67
2022/01/02 11:33:30;;;;;;;5.30;2.22;;;16.70;90.90;;;;;;4993013;28;20034;-66
2022/01/02 11:35:56;;;;;;;11.27;3.40;;;16.70;90.90;;;;;;4992735;28;20435;-67
2022/01/02 11:38:25;;;;;;;6.03;2.60;;;16.70;91.00;;;;;;4993319;28;20070;-66
2022/01/02 11:40:59;;;;;;;5.13;2.08;;;16.70;91.00;;;;;;4992305;28;20022;-67
2022/01/02 11:43:36;;;;;;;7.60;2.63;;;16.80;91.00;;;;;;4993132;28;20113;-67
2022/01/02 11:46:30;;;;;;;8.13;2.17;;;16.80;91.00;;;;;;4993107;28;20068;-67
2022/01/02 11:49:04;;;;;;;6.53;2.42;;;16.80;91.00;;;;;;4973399;28;20030;-68
2022/01/02 11:52:09;;;;;;;6.68;2.45;;;16.80;91.10;;;;;;4973797;28;20051;-66
2022/01/02 11:54:49;;;;;;;6.55;2.05;;;16.80;91.10;;;;;;4951521;29;20051;-67
2022/01/02 11:57:14;;;;;;;4.38;2.33;;;16.90;91.20;;;;;;4971856;28;20047;-67
2022/01/02 11:59:40;;;;;;;5.78;2.50;;;16.80;91.20;;;;;;4987662;28;20041;-66
2022/01/02 12:02:26;;;;;;;5.47;2.50;;;16.90;91.20;;;;;;4991817;28;20105;-66
2022/01/02 12:07:35;;;;;;;5.30;2.00;;;16.90;91.20;;;;;;4992563;28;20491;-67
2022/01/02 12:10:30;;;;;;;9.02;3.03;;;16.90;91.20;;;;;;4992448;28;20070;-68
2022/01/02 12:12:56;;;;;;;9.43;2.22;;;16.90;91.10;;;;;;4989616;28;20070;-66
2022/01/02 12:15:31;;;;;;;5.22;2.33;;;16.90;91.20;;;;;;4992649;28;20053;-66
2022/01/02 12:18:29;;;;;;;5.25;2.33;;;16.90;91.30;;;;;;4992065;28;20042;-66
2022/01/02 12:21:04;;;;;;;6.72;2.22;;;16.90;91.30;;;;;;4990670;28;20081;-66
2022/01/02 12:23:30;;;;;;;7.53;2.42;;;16.90;91.50;;;;;;4992448;28;20084;-67
2022/01/02 12:26:20;;;;;;;7.22;2.38;;;16.90;91.50;;;;;;4992530;28;20022;-66
2022/01/02 12:28:56;;;;;;;9.45;2.53;;;16.90;91.40;;;;;;4991537;28;20018;-66
2022/01/02 12:31:27;;;;;;;5.95;2.22;;;16.90;91.30;;;;;;4991890;28;20023;-67
2022/01/02 12:33:53;;;;;;;6.05;1.65;;;16.90;91.30;;;;;;4988339;28;20057;-67
2022/01/02 12:36:21;;;;;;;5.55;1.98;;;16.90;91.50;;;;;;4991173;28;20042;-66
2022/01/02 12:38:59;;;;;;;6.05;2.35;;;16.90;91.20;;;;;;4992578;28;20034;-68
2022/01/02 12:41:30;;;;;;;5.68;2.03;;;17.00;91.20;;;;;;4992683;28;20045;-68
2022/01/02 12:44:24;;;;;;;3.80;1.80;;;17.00;91.40;;;;;;4992342;28;20019;-67
2022/01/02 12:46:56;;;;;;;6.10;2.10;;;17.00;91.00;;;;;;4991869;28;20066;-67
2022/01/02 12:49:33;;;;;;;4.53;1.73;;;17.00;91.10;;;;;;4990227;28;20022;-68
2022/01/02 12:52:07;;;;;;;6.22;2.25;;;17.00;91.10;;;;;;4992495;28;20526;-66
2022/01/02 12:54:37;;;;;;;10.35;2.13;;;17.00;91.10;;;;;;4989974;28;20078;-66
2022/01/02 12:57:10;;;;;;;7.57;1.77;;;17.10;91.10;;;;;;4990982;28;20026;-67
2022/01/02 12:59:55;;;;;;;5.90;2.05;;;17.10;91.20;;;;;;4991517;28;20023;-68
2022/01/02 13:02:23;;;;;;;6.03;2.20;;;17.20;91.20;;;;;;4992766;28;20041;-66
2022/01/02 13:04:53;;;;;;;9.63;2.30;;;17.20;91.30;;;;;;4996888;28;20243;-68